Terminal Aerodrome Forecast
Issued by NWS

Home | Current Version | Previous Version | Text Only | Print | Product List | Glossary On
Versions: 1 2 3 4 5 6 7 8 9 10 11 12 13 14
938
FTUS43 KLSX 261727
TAFUIN
TAF
KUIN 261727Z 2618/2718 17009KT P6SM SCT150
     FM270000 14008KT P6SM SCT200
     FM270400 18007KT P6SM VCTS BKN060CB
     FM271300 18007KT 6SM -SHRA VCTS SCT030 BKN060CB=

USA.gov is the U.S. government's official web portal to all federal, state and local government web resources and services.